Time;durP1;ratioP1;P1;durP2;ratioP2;P2;SDS_P1;SDS_P2;PMS_P1;PMS_P2;Temp;Humidity;BMP_temperature;BMP_pressure;BME280_temperature;BME280_humidity;BME280_pressure;Samples;Min_cycle;Max_cycle;Signal;HPM_P1;HPM_P2
2022/10/22 00:01:46;;;;;;;10.43;3.60;;;;;;;10.22;70.82;101453.78;5049706;28;20506;-80
2022/10/22 00:04:12;;;;;;;7.03;4.03;;;;;;;10.19;71.21;101480.31;5045598;28;20033;-81
2022/10/22 00:06:41;;;;;;;12.38;5.03;;;;;;;10.11;70.49;101478.09;5037234;28;20503;-81
2022/10/22 00:09:07;;;;;;;10.27;5.30;;;;;;;10.01;69.39;101475.00;5045529;28;20037;-79
2022/10/22 00:11:36;;;;;;;11.88;6.47;;;;;;;9.79;69.96;101490.97;5066136;28;20047;-79
2022/10/22 00:14:04;;;;;;;15.93;6.95;;;;;;;9.20;71.44;101492.75;5070837;28;20414;-78
2022/10/22 00:16:29;;;;;;;14.43;6.70;;;;;;;8.95;71.42;101495.56;5039321;28;20048;-78
2022/10/22 00:18:55;;;;;;;17.00;7.10;;;;;;;8.66;71.97;101497.28;5046294;28;20057;-78
2022/10/22 00:21:21;;;;;;;16.23;7.50;;;;;;;8.60;72.12;101488.28;5032926;28;20114;-78
2022/10/22 00:23:48;;;;;;;11.35;7.25;;;;;;;8.60;71.95;101488.28;5049503;28;20033;-78
2022/10/22 00:26:13;;;;;;;12.93;6.95;;;;;;;8.56;70.85;101497.50;5049189;28;20033;-79
2022/10/22 00:28:39;;;;;;;15.45;6.70;;;;;;;8.45;72.17;101488.19;5048903;28;20048;-82
2022/10/22 00:31:06;;;;;;;13.05;7.03;;;;;;;8.40;73.17;101498.22;5049667;28;20545;-82
2022/10/22 00:33:32;;;;;;;12.15;6.82;;;;;;;8.24;73.58;101494.66;5049338;28;20047;-82
2022/10/22 00:35:58;;;;;;;14.48;7.32;;;;;;;8.08;73.07;101479.06;5027211;28;20049;-82
2022/10/22 00:38:24;;;;;;;11.57;7.20;;;;;;;7.87;72.05;101461.47;5049153;28;20040;-82
2022/10/22 00:40:51;;;;;;;11.50;6.88;;;;;;;7.91;72.13;101491.75;5049446;28;20422;-80
2022/10/22 00:43:18;;;;;;;13.90;7.18;;;;;;;7.87;71.95;101494.00;5049532;28;20049;-81
2022/10/22 00:45:45;;;;;;;14.10;7.03;;;;;;;7.63;72.01;101453.09;5049042;28;20029;-80
2022/10/22 00:48:17;;;;;;;12.82;6.35;;;;;;;7.78;72.21;101489.16;5049058;28;20036;-80
2022/10/22 00:50:49;;;;;;;13.68;7.00;;;;;;;7.54;72.61;101470.47;5049078;28;20049;-80
2022/10/22 00:53:23;;;;;;;12.23;6.82;;;;;;;7.57;71.16;101456.13;5049189;28;20048;-79
2022/10/22 00:55:55;;;;;;;10.88;6.35;;;;;;;7.79;70.35;101485.81;5049044;28;20041;-79
2022/10/22 00:58:27;;;;;;;13.52;6.90;;;;;;;7.38;71.67;101489.13;5064241;28;20119;-80
2022/10/22 01:00:55;;;;;;;12.38;6.82;;;;;;;6.71;72.52;101425.63;5069856;28;20025;-79
2022/10/22 01:03:21;;;;;;;13.25;7.22;;;;;;;6.84;73.74;101488.06;5070293;28;20047;-79
2022/10/22 01:06:02;;;;;;;15.27;6.85;;;;;;;6.72;73.93;101488.13;5070440;28;20478;-79
2022/10/22 01:08:30;;;;;;;16.20;7.68;;;;;;;6.36;73.72;101438.63;5070033;28;20501;-79
2022/10/22 01:11:21;;;;;;;15.13;6.88;;;;;;;6.55;74.04;101485.28;5070075;28;20028;-78
2022/10/22 01:13:58;;;;;;;12.02;7.60;;;;;;;6.58;73.78;101485.50;5070018;28;20495;-79
2022/10/22 01:16:58;;;;;;;13.27;7.38;;;;;;;6.41;73.46;101439.84;5069703;28;20031;-79
2022/10/22 01:20:02;;;;;;;12.27;7.38;;;;;;;6.60;73.11;101476.25;5069805;28;20040;-79
2022/10/22 01:22:33;;;;;;;10.18;7.10;;;;;;;6.52;72.76;101453.38;5048547;28;20506;-79
2022/10/22 01:25:17;;;;;;;15.75;7.25;;;;;;;6.68;72.54;101460.47;5032127;28;20033;-79
2022/10/22 01:28:00;;;;;;;13.10;7.40;;;;;;;6.71;72.56;101464.13;5048642;28;20044;-79
2022/10/22 01:30:26;;;;;;;13.57;7.25;;;;;;;6.71;72.46;101456.44;5048344;28;20132;-78
2022/10/22 01:32:58;;;;;;;14.25;7.47;;;;;;;6.69;72.43;101463.16;5048795;28;20071;-79
2022/10/22 01:35:30;;;;;;;12.90;6.72;;;;;;;6.76;72.31;101459.31;5031726;28;20072;-78
2022/10/22 01:38:00;;;;;;;9.57;6.80;;;;;;;6.79;72.09;101456.94;5031345;28;20028;-79
2022/10/22 01:40:27;;;;;;;12.98;7.43;;;;;;;6.69;71.82;101445.19;5048199;28;20045;-78
2022/10/22 01:43:01;;;;;;;12.05;7.00;;;;;;;6.68;72.51;101463.94;5031668;28;20056;-78
2022/10/22 01:45:43;;;;;;;13.30;6.97;;;;;;;6.44;73.33;101458.91;5031400;28;20044;-79
2022/10/22 01:48:35;;;;;;;14.85;8.00;;;;;;;6.41;73.54;101439.84;5048141;28;20132;-79
2022/10/22 01:51:12;;;;;;;13.90;8.13;;;;;;;6.21;74.17;101441.88;5048247;28;20037;-78
2022/10/22 01:54:13;;;;;;;15.73;7.57;;;;;;;6.01;75.17;101440.50;5048339;28;20045;-79
2022/10/22 01:57:08;;;;;;;21.60;8.32;;;;;;;6.25;74.56;101446.44;5048454;28;20037;-78
2022/10/22 02:00:03;;;;;;;13.07;7.80;;;;;;;6.03;75.09;101450.84;5063764;28;20424;-78
2022/10/22 02:02:43;;;;;;;10.50;7.18;;;;;;;5.91;76.24;101455.97;5069316;28;20082;-78
2022/10/22 02:05:16;;;;;;;12.20;6.20;;;;;;;5.69;77.03;101461.22;5069298;28;20087;-78
2022/10/22 02:07:54;;;;;;;13.35;6.32;;;;;;;5.65;77.25;101412.28;5068905;28;20035;-79
2022/10/22 02:10:21;;;;;;;9.85;6.00;;;;;;;5.85;77.01;101435.91;5085750;28;20037;-80
2022/10/22 02:12:53;;;;;;;14.18;6.00;;;;;;;5.98;77.32;101435.09;5059292;28;20040;-80
2022/10/22 02:15:20;;;;;;;8.98;5.20;;;;;;;5.87;77.17;101411.28;5065819;28;20616;-79
2022/10/22 02:17:46;;;;;;;10.57;5.70;;;;;;;6.14;76.51;101438.03;5052334;28;20154;-79
2022/10/22 02:20:17;;;;;;;12.68;5.25;;;;;;;6.34;76.29;101438.50;5054770;28;20131;-80
2022/10/22 02:22:43;;;;;;;10.52;5.70;;;;;;;6.39;75.39;101449.09;5073265;28;20028;-79
2022/10/22 02:25:10;;;;;;;9.95;5.65;;;;;;;6.35;75.49;101444.53;5073267;28;20044;-79
2022/10/22 02:27:42;;;;;;;7.05;4.82;;;;;;;6.24;75.99;101451.47;5074184;28;20043;-80
2022/10/22 02:30:19;;;;;;;12.10;5.47;;;;;;;5.52;78.06;101391.72;5059952;28;20052;-78
2022/10/22 02:32:52;;;;;;;9.68;5.32;;;;;;;5.74;78.56;101442.81;5072978;28;20446;-78
2022/10/22 02:35:21;;;;;;;10.40;4.85;;;;;;;5.78;79.30;101456.75;5073302;28;20528;-78
2022/10/22 02:37:48;;;;;;;11.32;5.38;;;;;;;5.74;79.68;101447.06;5074245;28;20070;-78
2022/10/22 02:40:14;;;;;;;7.28;4.88;;;;;;;5.73;79.27;101441.06;5074293;28;20110;-79
2022/10/22 02:42:41;;;;;;;11.35;6.32;;;;;;;5.47;78.41;101393.03;5055944;28;20185;-79
2022/10/22 02:45:07;;;;;;;8.70;4.63;;;;;;;5.69;78.97;101448.41;5072621;28;20490;-80
2022/10/22 02:47:32;;;;;;;11.85;5.30;;;;;;;5.67;79.65;101440.63;5056072;28;20174;-80
2022/10/22 02:49:58;;;;;;;9.07;5.47;;;;;;;5.73;80.13;101463.22;5055978;28;20032;-80
2022/10/22 02:52:23;;;;;;;9.43;5.50;;;;;;;5.69;80.09;101462.09;5073801;28;20033;-80
2022/10/22 02:54:49;;;;;;;10.07;5.43;;;;;;;5.64;80.48;101455.75;5055870;28;20774;-79
2022/10/22 02:57:14;;;;;;;7.72;4.82;;;;;;;5.52;81.21;101468.56;5073769;28;20071;-80
2022/10/22 02:59:39;;;;;;;13.88;7.72;;;;;;;5.63;81.05;101454.88;5064022;28;20467;-79
2022/10/22 03:02:05;;;;;;;43.08;20.10;;;;;;;5.58;81.39;101471.56;5091594;28;20043;-79
2022/10/22 03:04:30;;;;;;;49.67;21.25;;;;;;;5.57;81.12;101461.19;5089643;28;20371;-79
2022/10/22 03:06:56;;;;;;;51.03;24.00;;;;;;;5.54;80.43;101466.97;5055289;28;20173;-81
2022/10/22 03:09:21;;;;;;;37.05;18.08;;;;;;;5.65;80.40;101478.03;5055323;28;20024;-80
2022/10/22 03:11:47;;;;;;;25.30;13.75;;;;;;;5.76;79.68;101466.00;5054877;28;20524;-79
2022/10/22 03:14:12;;;;;;;33.45;15.75;;;;;;;5.91;79.00;101487.59;5073422;28;20036;-79
2022/10/22 03:16:38;;;;;;;43.28;19.33;;;;;;;5.79;79.01;101450.84;5073468;28;20029;-80
2022/10/22 03:19:03;;;;;;;35.10;18.05;;;;;;;6.00;77.66;101472.03;5077188;28;20402;-76
2022/10/22 03:21:34;;;;;;;40.83;18.10;;;;;;;6.06;76.86;101466.47;5055413;28;20032;-77
2022/10/22 03:24:07;;;;;;;36.70;17.23;;;;;;;6.06;76.10;101480.16;5073169;28;20052;-76
2022/10/22 03:26:33;;;;;;;31.50;17.05;;;;;;;5.75;76.40;101431.78;5073369;28;20071;-77
2022/10/22 03:28:59;;;;;;;29.58;15.32;;;;;;;5.83;76.64;101468.22;5072360;28;20103;-77
2022/10/22 03:31:25;;;;;;;24.20;13.23;;;;;;;5.79;76.38;101472.22;5072911;28;20098;-77
2022/10/22 03:33:50;;;;;;;24.02;13.65;;;;;;;5.81;76.39;101474.91;5075302;28;20031;-77
2022/10/22 03:36:16;;;;;;;25.35;14.52;;;;;;;5.82;76.05;101474.13;5083781;28;20028;-77
2022/10/22 03:38:42;;;;;;;28.25;14.82;;;;;;;5.60;75.91;101441.81;5065602;28;20402;-76
2022/10/22 03:41:07;;;;;;;27.75;14.95;;;;;;;5.82;75.96;101472.47;5081656;28;20035;-77
2022/10/22 03:43:34;;;;;;;26.20;14.60;;;;;;;5.87;75.35;101465.09;5064479;28;20032;-77
2022/10/22 03:46:00;;;;;;;33.30;14.15;;;;;;;6.03;75.00;101469.69;5082137;28;20028;-77
2022/10/22 03:48:25;;;;;;;31.38;15.82;;;;;;;6.11;74.57;101466.00;5082031;28;20034;-78
2022/10/22 03:50:51;;;;;;;37.83;19.48;;;;;;;6.13;73.88;101454.19;5083325;28;20111;-77
2022/10/22 03:53:16;;;;;;;42.83;21.40;;;;;;;6.16;73.40;101453.50;5063917;28;20024;-77
2022/10/22 03:55:42;;;;;;;40.63;20.23;;;;;;;6.29;73.53;101462.94;5082064;28;20409;-77
2022/10/22 03:58:07;;;;;;;32.95;15.02;;;;;;;6.27;71.53;101452.56;5065121;28;20029;-77
2022/10/22 04:00:34;;;;;;;41.28;17.13;;;;;;;6.19;71.29;101440.88;5085862;28;20029;-76
2022/10/22 04:02:59;;;;;;;30.67;15.80;;;;;;;6.27;71.46;101465.41;5072651;28;20040;-76
2022/10/22 04:05:25;;;;;;;28.13;13.32;;;;;;;6.23;70.79;101459.94;5082971;28;20092;-75
2022/10/22 04:07:51;;;;;;;18.65;9.50;;;;;;;6.23;70.66;101450.59;5090556;28;20032;-75
2022/10/22 04:10:16;;;;;;;20.73;9.75;;;;;;;6.37;69.75;101453.22;5074319;28;20114;-76
2022/10/22 04:12:41;;;;;;;17.95;9.05;;;;;;;6.41;69.38;101455.22;5074514;28;20020;-76
2022/10/22 04:15:08;;;;;;;20.90;8.80;;;;;;;6.43;69.07;101456.19;5092742;28;20073;-76
2022/10/22 04:17:36;;;;;;;30.27;11.82;;;;;;;6.16;68.39;101402.22;5092725;28;20397;-76
2022/10/22 04:20:03;;;;;;;13.80;6.60;;;;;;;6.31;67.81;101443.44;5092531;28;20031;-76
2022/10/22 04:22:31;;;;;;;11.05;5.20;;;;;;;6.13;68.57;101432.75;5092758;28;20028;-76
2022/10/22 04:24:57;;;;;;;12.93;5.65;;;;;;;6.01;69.79;101437.94;5089842;28;20020;-75
2022/10/22 04:27:22;;;;;;;10.00;5.25;;;;;;;5.96;70.19;101444.38;5092413;28;20433;-75
2022/10/22 04:29:47;;;;;;;9.18;5.47;;;;;;;5.91;69.95;101443.16;5087519;28;20123;-76
2022/10/22 04:32:13;;;;;;;12.52;6.38;;;;;;;5.97;70.25;101436.78;5092403;28;20016;-75
2022/10/22 04:34:38;;;;;;;8.60;5.55;;;;;;;5.95;69.21;101432.31;5092289;28;20039;-75
2022/10/22 04:37:04;;;;;;;9.80;5.10;;;;;;;5.65;69.03;101391.81;5083718;28;20528;-75
2022/10/22 04:39:29;;;;;;;12.70;5.65;;;;;;;5.92;68.96;101444.91;5071764;28;20036;-75
2022/10/22 04:41:55;;;;;;;10.05;5.18;;;;;;;5.74;69.91;101442.81;5071868;28;20060;-75
2022/10/22 04:44:20;;;;;;;12.00;6.43;;;;;;;5.57;71.45;101453.50;5070803;28;20823;-75
2022/10/22 04:46:45;;;;;;;15.40;7.47;;;;;;;5.27;74.43;101453.94;5036250;28;20044;-75
2022/10/22 04:49:11;;;;;;;11.77;7.15;;;;;;;5.12;76.04;101458.81;5071766;28;20032;-75
2022/10/22 04:51:36;;;;;;;19.08;13.02;;;;;;;5.00;76.08;101410.16;5071614;28;20391;-75
2022/10/22 04:54:02;;;;;;;22.75;10.95;;;;;;;5.24;75.96;101437.47;5071473;28;20040;-76
2022/10/22 04:56:29;;;;;;;18.20;9.25;;;;;;;5.43;75.65;101455.06;5071619;28;20036;-75
2022/10/22 04:59:03;;;;;;;16.13;9.25;;;;;;;5.18;75.47;101397.84;5071746;28;20063;-75
2022/10/22 05:01:41;;;;;;;18.73;10.73;;;;;;;5.60;75.26;101448.63;5053535;28;20028;-75
2022/10/22 05:04:09;;;;;;;20.73;9.38;;;;;;;5.55;74.30;101455.97;5071536;28;20112;-75
2022/10/22 05:06:36;;;;;;;16.15;6.63;;;;;;;5.58;73.30;101443.41;5071076;28;20033;-75
2022/10/22 05:09:05;;;;;;;19.65;6.25;;;;;;;5.54;73.19;101433.69;5053450;28;20064;-75
2022/10/22 05:11:35;;;;;;;12.02;6.07;;;;;;;5.76;72.23;101453.19;5048757;28;20487;-75
2022/10/22 05:14:04;;;;;;;12.60;6.45;;;;;;;5.86;72.77;101452.16;5049084;28;20037;-75
2022/10/22 05:16:31;;;;;;;18.03;6.40;;;;;;;5.91;72.84;101467.09;5048837;28;20187;-75
2022/10/22 05:18:58;;;;;;;18.05;8.55;;;;;;;5.86;73.80;101462.41;5048790;28;20033;-75
2022/10/22 05:21:23;;;;;;;14.10;7.70;;;;;;;5.57;76.36;101479.13;5048835;28;20063;-75
2022/10/22 05:23:52;;;;;;;20.23;9.95;;;;;;;5.28;78.56;101478.78;5031850;28;20502;-75
2022/10/22 05:26:20;;;;;;;18.65;8.55;;;;;;;5.32;78.74;101488.47;5048570;28;20127;-75
2022/10/22 05:28:46;;;;;;;14.85;7.85;;;;;;;5.06;80.10;101493.28;5040925;28;20029;-75
2022/10/22 05:31:13;;;;;;;15.02;7.07;;;;;;;4.72;82.52;101494.16;5048459;28;20057;-76
2022/10/22 05:33:39;;;;;;;16.08;7.15;;;;;;;4.44;84.63;101473.25;5031982;28;20507;-75
2022/10/22 05:36:06;;;;;;;15.93;8.15;;;;;;;4.48;85.47;101475.25;5028435;28;20040;-75
2022/10/22 05:38:33;;;;;;;18.23;7.07;;;;;;;4.64;86.12;101475.66;5031043;28;20041;-75
2022/10/22 05:41:04;;;;;;;14.32;6.47;;;;;;;5.15;85.50;101483.75;5041601;28;20133;-76
2022/10/22 05:43:30;;;;;;;9.88;6.18;;;;;;;5.42;83.82;101484.91;5068496;28;20048;-74
2022/10/22 05:46:01;;;;;;;12.75;5.97;;;;;;;5.67;83.14;101479.91;5083390;28;20032;-77
2022/10/22 05:48:27;;;;;;;11.57;5.57;;;;;;;5.93;81.85;101469.75;5076867;28;20116;-76
2022/10/22 05:50:52;;;;;;;10.43;4.65;;;;;;;6.04;81.39;101463.75;5070534;28;20118;-76
2022/10/22 05:53:18;;;;;;;7.93;4.95;;;;;;;6.23;80.84;101471.09;5087794;28;20032;-75
2022/10/22 05:55:44;;;;;;;11.15;4.95;;;;;;;6.35;80.24;101465.06;5061755;28;20025;-77
2022/10/22 05:58:13;;;;;;;10.02;4.97;;;;;;;6.57;79.94;101468.31;5081054;28;20028;-77
2022/10/22 06:00:38;;;;;;;9.30;5.15;;;;;;;6.76;79.29;101470.47;5080872;28;20475;-76
2022/10/22 06:03:04;;;;;;;9.60;5.38;;;;;;;6.77;80.19;101461.13;5079457;28;20042;-78
2022/10/22 06:05:29;;;;;;;9.82;5.97;;;;;;;6.92;79.85;101457.00;5058195;28;20024;-77
2022/10/22 06:07:56;;;;;;;12.95;6.22;;;;;;;7.12;79.21;101465.16;5071447;28;20490;-79
2022/10/22 06:10:22;;;;;;;12.63;6.00;;;;;;;7.26;77.97;101467.00;5071075;28;20483;-78
2022/10/22 06:12:48;;;;;;;21.13;7.25;;;;;;;7.39;77.37;101468.69;5026711;28;20037;-79
2022/10/22 06:15:16;;;;;;;13.60;5.95;;;;;;;7.24;77.41;101444.53;5026721;28;20043;-79
2022/10/22 06:17:46;;;;;;;9.52;6.20;;;;;;;7.38;77.57;101461.75;5026605;28;20038;-77
2022/10/22 06:20:12;;;;;;;10.15;6.20;;;;;;;7.47;77.44;101448.63;5027427;28;20108;-75
2022/10/22 06:22:38;;;;;;;10.20;6.28;;;;;;;7.42;76.64;101424.31;5026965;28;20503;-75
2022/10/22 06:25:04;;;;;;;10.50;6.32;;;;;;;7.67;76.80;101449.91;5028317;28;20084;-77
2022/10/22 06:27:30;;;;;;;12.52;6.38;;;;;;;7.59;77.09;101425.41;5026829;28;20056;-76
2022/10/22 06:29:55;;;;;;;12.40;5.85;;;;;;;7.69;77.68;101450.00;5026619;28;20049;-77
2022/10/22 06:32:20;;;;;;;10.70;6.18;;;;;;;7.74;77.83;101451.22;5042526;28;20491;-77
2022/10/22 06:34:47;;;;;;;12.10;6.20;;;;;;;7.81;77.72;101442.19;5030860;28;20036;-80
2022/10/22 06:37:14;;;;;;;9.57;6.53;;;;;;;7.93;77.52;101436.16;5030811;28;20029;-79
2022/10/22 06:39:39;;;;;;;11.18;5.63;;;;;;;8.21;77.13;101443.03;5047608;28;20064;-79
2022/10/22 06:42:05;;;;;;;11.27;6.35;;;;;;;8.42;76.11;101451.19;5030435;28;20068;-78
2022/10/22 06:44:31;;;;;;;11.82;6.32;;;;;;;8.31;76.46;101438.44;5063138;28;20482;-78
2022/10/22 06:46:57;;;;;;;9.70;5.25;;;;;;;8.53;75.63;101439.00;5090485;28;20109;-78
2022/10/22 06:49:22;;;;;;;15.30;6.40;;;;;;;8.55;75.40;101421.09;5090027;28;20103;-79
2022/10/22 06:51:52;;;;;;;11.20;6.03;;;;;;;8.50;75.27;101399.31;5087055;28;20699;-78
2022/10/22 06:54:19;;;;;;;13.23;6.15;;;;;;;8.64;75.74;101428.47;5089208;28;20477;-77
2022/10/22 06:56:44;;;;;;;20.58;5.63;;;;;;;9.04;74.79;101444.59;5072014;28;20076;-77
2022/10/22 06:59:10;;;;;;;9.35;5.30;;;;;;;9.09;73.66;101398.50;5089866;28;20473;-77
2022/10/22 07:01:35;;;;;;;9.38;5.10;;;;;;;9.32;74.09;101450.47;5090393;28;20031;-77
2022/10/22 07:04:01;;;;;;;12.25;5.32;;;;;;;9.16;74.58;101441.88;5092467;28;20041;-77
2022/10/22 07:06:28;;;;;;;10.27;6.13;;;;;;;9.32;73.93;101401.50;5075711;28;20493;-77
2022/10/22 07:08:56;;;;;;;7.90;5.13;;;;;;;9.85;72.89;101456.91;5093815;28;20028;-77
2022/10/22 07:11:27;;;;;;;9.60;4.85;;;;;;;9.97;72.42;101446.38;5076088;28;20041;-77
2022/10/22 07:13:55;;;;;;;8.98;5.15;;;;;;;10.07;72.29;101438.34;5073365;28;20029;-76
2022/10/22 07:16:21;;;;;;;8.05;4.70;;;;;;;9.92;72.18;101406.53;5055610;28;20405;-76
2022/10/22 07:18:47;;;;;;;7.85;4.80;;;;;;;10.41;71.53;101453.09;5055557;28;20031;-77
2022/10/22 07:21:14;;;;;;;6.32;3.80;;;;;;;10.63;70.14;101446.47;5073275;28;20541;-77
2022/10/22 07:23:40;;;;;;;15.95;4.90;;;;;;;10.86;69.33;101445.09;5084939;28;20046;-77
2022/10/22 07:26:07;;;;;;;8.02;4.18;;;;;;;10.98;68.71;101450.03;5093312;28;20040;-76
2022/10/22 07:28:35;;;;;;;7.47;4.30;;;;;;;11.19;67.61;101447.63;5093496;28;20042;-76
2022/10/22 07:31:01;;;;;;;4.70;2.83;;;;;;;10.98;66.54;101394.03;5075242;28;20170;-77
2022/10/22 07:33:26;;;;;;;11.43;3.70;;;;;;;11.31;66.14;101426.66;5093147;28;20056;-77
2022/10/22 07:36:05;;;;;;;5.28;3.17;;;;;;;11.47;64.78;101436.06;5093366;28;20113;-76
2022/10/22 07:38:31;;;;;;;8.35;4.03;;;;;;;11.46;65.08;101404.16;5093122;28;20028;-77
2022/10/22 07:40:56;;;;;;;7.28;3.13;;;;;;;11.90;62.50;101434.63;5092907;28;20134;-77
2022/10/22 07:43:22;;;;;;;17.52;3.38;;;;;;;11.93;60.79;101398.56;5092793;28;20032;-77
2022/10/22 07:45:48;;;;;;;5.93;2.65;;;;;;;12.20;59.83;101424.88;5093276;28;20032;-77
2022/10/22 07:48:13;;;;;;;7.70;3.08;;;;;;;12.35;58.84;101437.63;5075046;28;20023;-77
2022/10/22 07:50:39;;;;;;;4.93;2.95;;;;;;;12.34;58.71;101417.72;5093261;28;20394;-77
2022/10/22 07:53:04;;;;;;;7.63;2.83;;;;;;;12.56;57.42;101431.63;5092913;28;20063;-76
2022/10/22 07:55:30;;;;;;;11.23;3.00;;;;;;;12.44;56.86;101388.81;5092776;28;20107;-77
2022/10/22 07:57:55;;;;;;;6.30;2.40;;;;;;;12.71;55.81;101426.22;5093167;28;20081;-76
2022/10/22 08:00:21;;;;;;;6.07;2.90;;;;;;;12.65;55.84;101418.19;5074110;28;20032;-77
2022/10/22 08:02:46;;;;;;;5.53;2.40;;;;;;;12.77;56.52;101417.03;5074617;28;20023;-77
2022/10/22 08:05:12;;;;;;;7.68;2.97;;;;;;;12.45;56.40;101340.50;5092637;28;20051;-77
2022/10/22 08:07:38;;;;;;;7.57;3.40;;;;;;;13.05;57.18;101412.13;5074412;28;20028;-77
2022/10/22 08:10:05;;;;;;;7.07;2.97;;;;;;;13.11;55.12;101407.22;5092527;28;20048;-77
2022/10/22 08:12:30;;;;;;;6.15;2.60;;;;;;;13.23;54.12;101404.22;5074450;28;20500;-77
2022/10/22 08:14:56;;;;;;;7.28;2.70;;;;;;;13.39;52.42;101401.44;5075404;28;20115;-77
2022/10/22 08:17:21;;;;;;;6.32;3.10;;;;;;;13.37;51.62;101373.66;5072135;28;20028;-77
2022/10/22 08:19:47;;;;;;;6.30;2.60;;;;;;;13.49;51.57;101384.56;5069471;28;20060;-78
2022/10/22 08:22:12;;;;;;;11.05;3.25;;;;;;;13.69;50.45;101407.81;5069717;28;20047;-78
2022/10/22 08:24:37;;;;;;;11.40;3.10;;;;;;;13.68;50.49;101387.88;5069115;28;20040;-77
2022/10/22 08:27:03;;;;;;;4.15;2.28;;;;;;;13.72;50.17;101380.28;5069457;28;20103;-77
2022/10/22 08:29:28;;;;;;;4.47;3.00;;;;;;;13.69;51.01;101372.34;5069193;28;20089;-77
2022/10/22 08:31:54;;;;;;;7.13;2.88;;;;;;;13.94;49.75;101393.19;5069551;28;20522;-77
2022/10/22 08:34:19;;;;;;;10.18;3.13;;;;;;;14.05;50.02;101399.66;5063296;28;20511;-75
2022/10/22 08:36:46;;;;;;;10.50;3.00;;;;;;;14.14;50.55;101386.16;5063490;28;20122;-77
2022/10/22 08:39:12;;;;;;;5.45;2.97;;;;;;;14.32;50.15;101381.63;5069256;28;20051;-77
2022/10/22 08:41:56;;;;;;;8.35;3.38;;;;;;;14.42;49.23;101376.75;5069435;28;20025;-78
2022/10/22 08:44:41;;;;;;;6.85;3.10;;;;;;;14.58;49.04;101384.28;5064341;28;20063;-77
2022/10/22 08:47:46;;;;;;;8.52;4.10;;;;;;;14.78;49.08;101374.59;5066547;28;20032;-76
2022/10/22 08:50:18;;;;;;;5.90;3.20;;;;;;;14.82;49.38;101370.41;5009304;28;20048;-76
2022/10/22 08:52:48;;;;;;;5.97;2.80;;;;;;;14.80;49.30;101372.06;5009684;28;20085;-76
2022/10/22 08:55:15;;;;;;;10.30;3.20;;;;;;;15.00;49.48;101375.31;5009488;28;20539;-76
2022/10/22 08:58:02;;;;;;;7.28;3.38;;;;;;;15.12;49.46;101380.06;4976701;28;20120;-77
2022/10/22 09:00:38;;;;;;;8.43;3.08;;;;;;;14.99;49.74;101365.75;5008814;28;20116;-79
2022/10/22 09:03:41;;;;;;;7.18;3.63;;;;;;;15.00;50.27;101368.41;5003532;28;20038;-75
2022/10/22 09:06:14;;;;;;;8.57;4.10;;;;;;;14.99;50.31;101371.84;5009241;28;20056;-78
2022/10/22 09:08:42;;;;;;;8.15;3.85;;;;;;;15.16;50.68;101354.19;5007972;28;20164;-80
2022/10/22 09:11:14;;;;;;;13.88;3.60;;;;;;;15.29;51.02;101352.88;4993441;28;20048;-79
2022/10/22 09:13:43;;;;;;;7.85;3.88;;;;;;;15.33;50.39;101357.31;4981459;28;20136;-77
2022/10/22 09:16:16;;;;;;;8.98;3.40;;;;;;;15.43;49.34;101349.81;4989482;28;20053;-77
2022/10/22 09:19:03;;;;;;;8.35;3.65;;;;;;;15.52;49.97;101345.75;4988896;28;20496;-76
2022/10/22 09:21:49;;;;;;;11.98;3.40;;;;;;;15.49;50.06;101306.66;4989173;28;20567;-76
2022/10/22 09:25:00;;;;;;;9.07;3.50;;;;;;;15.76;49.83;101326.50;4989111;28;20155;-77
2022/10/22 09:27:29;;;;;;;10.50;3.65;;;;;;;15.92;50.38;101322.66;5017967;28;20056;-76
2022/10/22 09:29:55;;;;;;;7.07;3.40;;;;;;;15.99;49.63;101318.53;5028571;28;20084;-77
2022/10/22 09:32:20;;;;;;;10.05;3.50;;;;;;;16.20;48.67;101305.22;5028852;28;20029;-77
2022/10/22 09:34:49;;;;;;;10.57;3.60;;;;;;;16.17;49.70;101325.97;5028856;28;20635;-78
2022/10/22 09:37:19;;;;;;;11.40;4.07;;;;;;;15.96;51.57;101319.34;5028706;28;20034;-77
2022/10/22 09:39:51;;;;;;;7.22;3.90;;;;;;;16.40;50.21;101328.31;5011866;28;20045;-77
2022/10/22 09:42:21;;;;;;;6.68;3.58;;;;;;;16.47;50.06;101312.00;5028491;28;20045;-77
2022/10/22 09:44:51;;;;;;;;;;;;;;;16.58;49.57;101299.25;5051958;28;20071;-77
2022/10/22 09:47:39;;;;;;;8.45;4.20;;;;;;;16.54;49.52;101298.28;5070765;28;19995;-77
2022/10/22 09:50:10;;;;;;;5.72;3.42;;;;;;;16.54;49.91;101293.09;5070507;28;20028;-76
2022/10/22 09:52:38;;;;;;;12.65;3.95;;;;;;;16.63;48.65;101297.66;5070909;28;20025;-77
2022/10/22 09:55:23;;;;;;;5.35;3.55;;;;;;;16.76;47.92;101285.78;5052887;28;20637;-77
2022/10/22 09:57:57;;;;;;;6.28;3.65;;;;;;;16.92;47.72;101285.38;5052620;28;20036;-77
2022/10/22 10:00:24;;;;;;;5.78;3.40;;;;;;;17.04;46.62;101291.72;5079496;28;20070;-77
2022/10/22 10:02:56;;;;;;;10.57;4.05;;;;;;;16.90;46.86;101273.97;5091068;28;20043;-76
2022/10/22 10:05:33;;;;;;;8.65;3.50;;;;;;;17.17;46.52;101290.28;5091020;28;20020;-77
2022/10/22 10:08:13;;;;;;;9.98;4.32;;;;;;;17.36;45.94;101273.28;5072490;28;20055;-77
2022/10/22 10:10:58;;;;;;;8.57;3.65;;;;;;;17.08;46.08;101205.72;5090581;28;20081;-77
2022/10/22 10:13:39;;;;;;;8.85;4.05;;;;;;;17.67;45.78;101271.34;5090674;28;20115;-77
2022/10/22 10:16:11;;;;;;;10.93;3.80;;;;;;;17.73;45.50;101261.91;5090763;28;20034;-77
2022/10/22 10:18:49;;;;;;;6.05;3.30;;;;;;;17.44;44.62;101254.34;5090564;28;20040;-76
2022/10/22 10:21:22;;;;;;;8.47;3.70;;;;;;;17.57;45.12;101251.97;5090427;28;20046;-77
2022/10/22 10:24:02;;;;;;;6.15;3.25;;;;;;;17.83;44.31;101252.53;5090701;28;20262;-78
2022/10/22 10:26:41;;;;;;;5.53;3.40;;;;;;;17.85;44.38;101242.09;5091090;28;20454;-77
2022/10/22 10:29:41;;;;;;;6.85;3.70;;;;;;;17.82;44.36;101236.81;5090877;28;20082;-77
2022/10/22 10:32:34;;;;;;;7.68;3.65;;;;;;;18.01;43.96;101238.97;5028131;28;20049;-77
2022/10/22 10:35:15;;;;;;;5.75;3.72;;;;;;;17.92;43.56;101225.72;5028046;28;20061;-77
2022/10/22 10:37:54;;;;;;;6.57;3.70;;;;;;;17.97;43.69;101194.44;5027260;28;20091;-77
2022/10/22 10:40:27;;;;;;;;;;;;;;;18.17;43.43;101206.16;5030427;28;20153;-77
2022/10/22 10:42:59;;;;;;;10.85;3.72;;;;;;;18.22;42.78;101201.88;5031456;28;19954;-77
2022/10/22 10:45:55;;;;;;;5.82;3.30;;;;;;;18.37;41.83;101193.41;5031426;28;20487;-78
2022/10/22 10:48:41;;;;;;;8.60;3.90;;;;;;;18.31;42.07;101200.28;5031189;28;20030;-77
2022/10/22 10:51:25;;;;;;;9.05;3.40;;;;;;;18.45;41.77;101192.66;5031295;28;20260;-78
2022/10/22 10:53:53;;;;;;;6.43;3.08;;;;;;;18.52;41.10;101187.56;5031456;28;20080;-77
2022/10/22 10:56:27;;;;;;;7.40;3.00;;;;;;;18.22;41.57;101180.97;5022704;28;20033;-77
2022/10/22 10:59:16;;;;;;;4.65;3.03;;;;;;;18.35;41.77;101183.78;5030727;28;20048;-78
2022/10/22 11:02:12;;;;;;;6.10;3.28;;;;;;;18.68;40.75;101187.78;5010537;28;20701;-77
2022/10/22 11:04:57;;;;;;;9.13;3.45;;;;;;;18.72;40.98;101181.75;5010163;28;20125;-78
2022/10/22 11:07:30;;;;;;;12.05;3.72;;;;;;;18.82;40.41;101159.22;4996879;28;20435;-78
2022/10/22 11:10:02;;;;;;;7.40;3.40;;;;;;;18.79;40.63;101162.69;5040843;28;20079;-78
2022/10/22 11:12:38;;;;;;;5.97;3.28;;;;;;;18.92;40.38;101151.53;5023081;28;20095;-78
2022/10/22 11:15:29;;;;;;;10.02;3.45;;;;;;;19.06;39.87;101146.47;5039808;28;20533;-78
2022/10/22 11:18:01;;;;;;;8.35;3.70;;;;;;;19.07;39.90;101150.00;5040770;28;20419;-77
2022/10/22 11:20:38;;;;;;;5.13;3.30;;;;;;;18.98;39.81;101116.75;5039620;28;20037;-78
2022/10/22 11:23:10;;;;;;;9.27;3.83;;;;;;;19.26;39.56;101145.00;5039676;28;20026;-78
2022/10/22 11:25:43;;;;;;;9.20;3.30;;;;;;;19.17;39.67;101133.53;5040533;28;20118;-78
2022/10/22 11:28:16;;;;;;;9.25;3.63;;;;;;;19.11;39.35;101123.00;5038855;28;20537;-78
2022/10/22 11:30:47;;;;;;;6.68;3.33;;;;;;;19.11;39.50;101136.09;5024589;28;20049;-78
2022/10/22 11:33:18;;;;;;;11.23;3.53;;;;;;;19.22;39.73;101113.53;5025568;28;20034;-78
2022/10/22 11:35:46;;;;;;;8.05;3.70;;;;;;;19.20;39.18;101088.19;5022724;28;20604;-79
2022/10/22 11:38:15;;;;;;;5.88;3.25;;;;;;;19.26;40.06;101119.69;5036495;28;20035;-77
2022/10/22 11:40:46;;;;;;;;;;;;;;;19.10;39.33;101115.13;5066140;28;20071;-78